sensor_id;sensor_type;location;lat;lon;timestamp;P1;durP1;ratioP1;P2;durP2;ratioP2
17662;SDS011;8950;56.892;15.090;2022-08-19T00:00:13;16.23;;;14.63;;
17662;SDS011;8950;56.892;15.090;2022-08-19T00:02:41;16.02;;;14.57;;
17662;SDS011;8950;56.892;15.090;2022-08-19T00:05:08;15.15;;;13.85;;
17662;SDS011;8950;56.892;15.090;2022-08-19T00:07:36;15.52;;;13.95;;
17662;SDS011;8950;56.892;15.090;2022-08-19T00:10:04;15.27;;;13.98;;
17662;SDS011;8950;56.892;15.090;2022-08-19T00:12:30;15.15;;;13.80;;
17662;SDS011;8950;56.892;15.090;2022-08-19T00:14:57;15.55;;;14.10;;
17662;SDS011;8950;56.892;15.090;2022-08-19T00:17:23;15.75;;;14.35;;
17662;SDS011;8950;56.892;15.090;2022-08-19T00:19:50;13.77;;;12.57;;
17662;SDS011;8950;56.892;15.090;2022-08-19T00:22:16;15.13;;;13.93;;
17662;SDS011;8950;56.892;15.090;2022-08-19T00:24:44;15.35;;;13.90;;
17662;SDS011;8950;56.892;15.090;2022-08-19T00:27:12;14.50;;;13.10;;
17662;SDS011;8950;56.892;15.090;2022-08-19T00:29:38;14.52;;;13.23;;
17662;SDS011;8950;56.892;15.090;2022-08-19T00:32:05;14.90;;;13.32;;
17662;SDS011;8950;56.892;15.090;2022-08-19T00:34:32;14.52;;;13.23;;
17662;SDS011;8950;56.892;15.090;2022-08-19T00:36:58;14.55;;;12.27;;
17662;SDS011;8950;56.892;15.090;2022-08-19T00:39:25;14.02;;;12.80;;
17662;SDS011;8950;56.892;15.090;2022-08-19T00:41:53;14.18;;;12.80;;
17662;SDS011;8950;56.892;15.090;2022-08-19T00:44:20;14.13;;;12.82;;
17662;SDS011;8950;56.892;15.090;2022-08-19T00:46:48;14.55;;;13.23;;
17662;SDS011;8950;56.892;15.090;2022-08-19T00:49:15;13.93;;;12.85;;
17662;SDS011;8950;56.892;15.090;2022-08-19T00:51:43;13.73;;;12.45;;
17662;SDS011;8950;56.892;15.090;2022-08-19T00:54:10;13.57;;;12.43;;
17662;SDS011;8950;56.892;15.090;2022-08-19T00:56:37;13.20;;;11.82;;
17662;SDS011;8950;56.892;15.090;2022-08-19T00:59:05;14.05;;;11.35;;
17662;SDS011;8950;56.892;15.090;2022-08-19T01:01:34;14.25;;;12.88;;
17662;SDS011;8950;56.892;15.090;2022-08-19T01:04:00;13.27;;;12.18;;
17662;SDS011;8950;56.892;15.090;2022-08-19T01:06:27;14.23;;;12.93;;
17662;SDS011;8950;56.892;15.090;2022-08-19T01:08:57;13.50;;;12.10;;
17662;SDS011;8950;56.892;15.090;2022-08-19T01:11:23;13.32;;;12.18;;
17662;SDS011;8950;56.892;15.090;2022-08-19T01:13:50;13.70;;;12.60;;
17662;SDS011;8950;56.892;15.090;2022-08-19T01:16:19;14.65;;;13.15;;
17662;SDS011;8950;56.892;15.090;2022-08-19T01:18:46;13.38;;;12.10;;
17662;SDS011;8950;56.892;15.090;2022-08-19T01:21:16;14.27;;;13.15;;
17662;SDS011;8950;56.892;15.090;2022-08-19T01:23:45;15.00;;;12.32;;
17662;SDS011;8950;56.892;15.090;2022-08-19T01:26:14;13.48;;;12.27;;
17662;SDS011;8950;56.892;15.090;2022-08-19T01:28:42;13.25;;;12.05;;
17662;SDS011;8950;56.892;15.090;2022-08-19T01:31:10;13.80;;;12.50;;
17662;SDS011;8950;56.892;15.090;2022-08-19T01:33:37;14.05;;;12.77;;
17662;SDS011;8950;56.892;15.090;2022-08-19T01:36:04;13.75;;;12.35;;
17662;SDS011;8950;56.892;15.090;2022-08-19T01:38:34;12.90;;;11.68;;
17662;SDS011;8950;56.892;15.090;2022-08-19T01:41:02;12.80;;;11.68;;
17662;SDS011;8950;56.892;15.090;2022-08-19T01:43:29;12.88;;;11.60;;
17662;SDS011;8950;56.892;15.090;2022-08-19T01:45:55;14.20;;;11.25;;
17662;SDS011;8950;56.892;15.090;2022-08-19T01:48:22;12.57;;;11.38;;
17662;SDS011;8950;56.892;15.090;2022-08-19T01:50:48;13.13;;;11.70;;
17662;SDS011;8950;56.892;15.090;2022-08-19T01:53:15;12.75;;;11.50;;
17662;SDS011;8950;56.892;15.090;2022-08-19T01:55:42;12.43;;;11.15;;
17662;SDS011;8950;56.892;15.090;2022-08-19T01:58:11;12.43;;;11.20;;
17662;SDS011;8950;56.892;15.090;2022-08-19T02:00:38;12.00;;;11.00;;
17662;SDS011;8950;56.892;15.090;2022-08-19T02:03:05;11.35;;;10.43;;
17662;SDS011;8950;56.892;15.090;2022-08-19T02:05:33;11.77;;;10.88;;
17662;SDS011;8950;56.892;15.090;2022-08-19T02:07:59;11.93;;;10.82;;
17662;SDS011;8950;56.892;15.090;2022-08-19T02:10:26;12.13;;;10.93;;
17662;SDS011;8950;56.892;15.090;2022-08-19T02:12:52;11.40;;;10.30;;
17662;SDS011;8950;56.892;15.090;2022-08-19T02:15:20;10.52;;;9.70;;
17662;SDS011;8950;56.892;15.090;2022-08-19T02:17:47;11.50;;;10.40;;
17662;SDS011;8950;56.892;15.090;2022-08-19T02:20:14;11.75;;;10.50;;
17662;SDS011;8950;56.892;15.090;2022-08-19T02:22:41;10.65;;;9.70;;
17662;SDS011;8950;56.892;15.090;2022-08-19T02:25:08;9.93;;;8.95;;
17662;SDS011;8950;56.892;15.090;2022-08-19T02:27:35;10.88;;;9.88;;
17662;SDS011;8950;56.892;15.090;2022-08-19T02:30:02;10.43;;;9.52;;
17662;SDS011;8950;56.892;15.090;2022-08-19T02:32:30;9.77;;;8.98;;
17662;SDS011;8950;56.892;15.090;2022-08-19T02:34:58;10.50;;;9.35;;
17662;SDS011;8950;56.892;15.090;2022-08-19T02:37:24;10.68;;;9.77;;
17662;SDS011;8950;56.892;15.090;2022-08-19T02:40:09;10.50;;;9.60;;
17662;SDS011;8950;56.892;15.090;2022-08-19T02:42:36;10.60;;;9.80;;
17662;SDS011;8950;56.892;15.090;2022-08-19T02:45:02;9.73;;;8.73;;
17662;SDS011;8950;56.892;15.090;2022-08-19T02:47:31;10.25;;;9.38;;
17662;SDS011;8950;56.892;15.090;2022-08-19T02:49:57;10.02;;;9.13;;
17662;SDS011;8950;56.892;15.090;2022-08-19T02:52:24;13.20;;;9.63;;
17662;SDS011;8950;56.892;15.090;2022-08-19T02:54:52;9.95;;;8.95;;
17662;SDS011;8950;56.892;15.090;2022-08-19T02:57:18;9.68;;;8.98;;
17662;SDS011;8950;56.892;15.090;2022-08-19T02:59:45;10.98;;;9.40;;
17662;SDS011;8950;56.892;15.090;2022-08-19T03:02:11;9.85;;;8.93;;
17662;SDS011;8950;56.892;15.090;2022-08-19T03:04:39;10.10;;;9.18;;
17662;SDS011;8950;56.892;15.090;2022-08-19T03:07:06;10.13;;;9.23;;
17662;SDS011;8950;56.892;15.090;2022-08-19T03:09:36;9.50;;;8.68;;
17662;SDS011;8950;56.892;15.090;2022-08-19T03:12:06;10.18;;;9.15;;
17662;SDS011;8950;56.892;15.090;2022-08-19T03:14:33;10.30;;;9.40;;
17662;SDS011;8950;56.892;15.090;2022-08-19T03:17:00;10.77;;;9.18;;
17662;SDS011;8950;56.892;15.090;2022-08-19T03:19:28;9.88;;;9.02;;
17662;SDS011;8950;56.892;15.090;2022-08-19T03:21:56;10.55;;;9.40;;
17662;SDS011;8950;56.892;15.090;2022-08-19T03:24:23;9.75;;;8.80;;
17662;SDS011;8950;56.892;15.090;2022-08-19T03:26:51;9.90;;;8.90;;
17662;SDS011;8950;56.892;15.090;2022-08-19T03:29:18;10.38;;;9.40;;
17662;SDS011;8950;56.892;15.090;2022-08-19T03:31:45;9.40;;;8.60;;
17662;SDS011;8950;56.892;15.090;2022-08-19T03:34:12;10.32;;;9.43;;
17662;SDS011;8950;56.892;15.090;2022-08-19T03:36:39;10.13;;;9.23;;
17662;SDS011;8950;56.892;15.090;2022-08-19T03:39:06;10.05;;;9.20;;
17662;SDS011;8950;56.892;15.090;2022-08-19T03:41:35;10.07;;;9.20;;
17662;SDS011;8950;56.892;15.090;2022-08-19T03:44:02;9.82;;;9.02;;
17662;SDS011;8950;56.892;15.090;2022-08-19T03:46:30;11.18;;;10.32;;
17662;SDS011;8950;56.892;15.090;2022-08-19T03:48:59;10.68;;;9.68;;
17662;SDS011;8950;56.892;15.090;2022-08-19T03:51:26;10.80;;;9.75;;
17662;SDS011;8950;56.892;15.090;2022-08-19T03:53:54;10.32;;;9.40;;
17662;SDS011;8950;56.892;15.090;2022-08-19T03:56:22;10.15;;;9.18;;
17662;SDS011;8950;56.892;15.090;2022-08-19T03:58:50;10.52;;;9.57;;
17662;SDS011;8950;56.892;15.090;2022-08-19T04:01:19;9.55;;;8.65;;
17662;SDS011;8950;56.892;15.090;2022-08-19T04:03:46;9.93;;;9.02;;
17662;SDS011;8950;56.892;15.090;2022-08-19T04:06:13;10.07;;;9.18;;
17662;SDS011;8950;56.892;15.090;2022-08-19T04:08:40;10.38;;;9.35;;
17662;SDS011;8950;56.892;15.090;2022-08-19T04:11:07;10.65;;;9.65;;
17662;SDS011;8950;56.892;15.090;2022-08-19T04:13:35;10.05;;;9.15;;
17662;SDS011;8950;56.892;15.090;2022-08-19T04:16:02;9.88;;;9.05;;
17662;SDS011;8950;56.892;15.090;2022-08-19T04:18:29;9.32;;;8.50;;
17662;SDS011;8950;56.892;15.090;2022-08-19T04:20:56;9.23;;;8.32;;
17662;SDS011;8950;56.892;15.090;2022-08-19T04:23:23;9.70;;;8.88;;
17662;SDS011;8950;56.892;15.090;2022-08-19T04:25:49;9.95;;;9.05;;
17662;SDS011;8950;56.892;15.090;2022-08-19T04:28:16;10.23;;;9.32;;
17662;SDS011;8950;56.892;15.090;2022-08-19T04:30:46;10.60;;;9.25;;
17662;SDS011;8950;56.892;15.090;2022-08-19T04:33:14;10.55;;;9.65;;
17662;SDS011;8950;56.892;15.090;2022-08-19T04:35:41;10.13;;;9.13;;
17662;SDS011;8950;56.892;15.090;2022-08-19T04:38:09;12.07;;;8.80;;
17662;SDS011;8950;56.892;15.090;2022-08-19T04:40:39;9.82;;;8.95;;
17662;SDS011;8950;56.892;15.090;2022-08-19T04:43:23;9.90;;;9.00;;
17662;SDS011;8950;56.892;15.090;2022-08-19T04:45:51;8.93;;;8.23;;
17662;SDS011;8950;56.892;15.090;2022-08-19T04:48:17;10.07;;;9.27;;
17662;SDS011;8950;56.892;15.090;2022-08-19T04:50:50;11.75;;;8.80;;
17662;SDS011;8950;56.892;15.090;2022-08-19T04:53:22;9.63;;;8.68;;
17662;SDS011;8950;56.892;15.090;2022-08-19T04:55:49;10.02;;;9.10;;
17662;SDS011;8950;56.892;15.090;2022-08-19T04:58:16;9.77;;;8.85;;
17662;SDS011;8950;56.892;15.090;2022-08-19T05:00:42;9.63;;;8.15;;
17662;SDS011;8950;56.892;15.090;2022-08-19T05:03:11;10.60;;;8.73;;
17662;SDS011;8950;56.892;15.090;2022-08-19T05:05:38;9.75;;;8.82;;
17662;SDS011;8950;56.892;15.090;2022-08-19T05:08:05;9.27;;;8.35;;
17662;SDS011;8950;56.892;15.090;2022-08-19T05:10:34;8.88;;;8.07;;
17662;SDS011;8950;56.892;15.090;2022-08-19T05:13:00;9.18;;;8.35;;
17662;SDS011;8950;56.892;15.090;2022-08-19T05:15:27;9.80;;;8.52;;
17662;SDS011;8950;56.892;15.090;2022-08-19T05:17:53;9.27;;;8.48;;
17662;SDS011;8950;56.892;15.090;2022-08-19T05:20:39;8.73;;;8.00;;
17662;SDS011;8950;56.892;15.090;2022-08-19T05:23:23;9.10;;;8.40;;
17662;SDS011;8950;56.892;15.090;2022-08-19T05:25:50;9.25;;;8.45;;
17662;SDS011;8950;56.892;15.090;2022-08-19T05:28:16;9.32;;;8.38;;
17662;SDS011;8950;56.892;15.090;2022-08-19T05:30:43;9.25;;;8.32;;
17662;SDS011;8950;56.892;15.090;2022-08-19T05:33:10;9.13;;;8.30;;
17662;SDS011;8950;56.892;15.090;2022-08-19T05:35:37;9.20;;;8.32;;
17662;SDS011;8950;56.892;15.090;2022-08-19T05:38:05;9.00;;;8.25;;
17662;SDS011;8950;56.892;15.090;2022-08-19T05:40:33;9.73;;;8.75;;
17662;SDS011;8950;56.892;15.090;2022-08-19T05:43:01;9.10;;;8.18;;
17662;SDS011;8950;56.892;15.090;2022-08-19T05:45:27;9.65;;;8.85;;
17662;SDS011;8950;56.892;15.090;2022-08-19T05:47:54;8.98;;;8.07;;
17662;SDS011;8950;56.892;15.090;2022-08-19T05:50:20;9.82;;;8.88;;
17662;SDS011;8950;56.892;15.090;2022-08-19T05:52:47;9.13;;;8.27;;
17662;SDS011;8950;56.892;15.090;2022-08-19T05:55:15;9.18;;;8.27;;
17662;SDS011;8950;56.892;15.090;2022-08-19T05:57:41;9.52;;;8.00;;
17662;SDS011;8950;56.892;15.090;2022-08-19T06:00:08;8.68;;;7.88;;
17662;SDS011;8950;56.892;15.090;2022-08-19T06:02:36;13.00;;;8.68;;
17662;SDS011;8950;56.892;15.090;2022-08-19T06:05:03;8.68;;;7.88;;
17662;SDS011;8950;56.892;15.090;2022-08-19T06:07:31;9.20;;;8.30;;
17662;SDS011;8950;56.892;15.090;2022-08-19T06:09:58;9.18;;;8.30;;
17662;SDS011;8950;56.892;15.090;2022-08-19T06:12:26;8.60;;;7.75;;
17662;SDS011;8950;56.892;15.090;2022-08-19T06:14:55;8.90;;;8.15;;
17662;SDS011;8950;56.892;15.090;2022-08-19T06:17:22;9.50;;;8.07;;
17662;SDS011;8950;56.892;15.090;2022-08-19T06:19:50;9.13;;;8.32;;
17662;SDS011;8950;56.892;15.090;2022-08-19T06:22:16;9.45;;;8.43;;
17662;SDS011;8950;56.892;15.090;2022-08-19T06:24:43;9.35;;;8.52;;
17662;SDS011;8950;56.892;15.090;2022-08-19T06:27:09;10.00;;;8.07;;
17662;SDS011;8950;56.892;15.090;2022-08-19T06:29:37;9.13;;;8.32;;
17662;SDS011;8950;56.892;15.090;2022-08-19T06:32:04;8.88;;;8.07;;
17662;SDS011;8950;56.892;15.090;2022-08-19T06:34:31;9.90;;;8.43;;
17662;SDS011;8950;56.892;15.090;2022-08-19T06:36:59;9.57;;;8.77;;
17662;SDS011;8950;56.892;15.090;2022-08-19T06:39:27;9.85;;;8.63;;
17662;SDS011;8950;56.892;15.090;2022-08-19T06:41:56;8.95;;;8.10;;
17662;SDS011;8950;56.892;15.090;2022-08-19T06:44:23;9.80;;;8.75;;
17662;SDS011;8950;56.892;15.090;2022-08-19T06:46:52;9.18;;;8.25;;
17662;SDS011;8950;56.892;15.090;2022-08-19T06:49:19;8.98;;;8.27;;
17662;SDS011;8950;56.892;15.090;2022-08-19T06:51:46;9.25;;;8.45;;
17662;SDS011;8950;56.892;15.090;2022-08-19T06:54:13;9.38;;;8.25;;
17662;SDS011;8950;56.892;15.090;2022-08-19T06:56:40;9.25;;;8.45;;
17662;SDS011;8950;56.892;15.090;2022-08-19T06:59:08;10.25;;;9.10;;
17662;SDS011;8950;56.892;15.090;2022-08-19T07:01:35;9.93;;;8.45;;
17662;SDS011;8950;56.892;15.090;2022-08-19T07:04:05;9.75;;;8.82;;
17662;SDS011;8950;56.892;15.090;2022-08-19T07:06:31;9.55;;;8.75;;
17662;SDS011;8950;56.892;15.090;2022-08-19T07:08:58;9.73;;;8.73;;
17662;SDS011;8950;56.892;15.090;2022-08-19T07:11:24;9.23;;;8.43;;
17662;SDS011;8950;56.892;15.090;2022-08-19T07:13:51;9.70;;;8.90;;
17662;SDS011;8950;56.892;15.090;2022-08-19T07:16:18;10.15;;;9.00;;
17662;SDS011;8950;56.892;15.090;2022-08-19T07:18:45;9.93;;;8.93;;
17662;SDS011;8950;56.892;15.090;2022-08-19T07:21:14;10.63;;;9.65;;
17662;SDS011;8950;56.892;15.090;2022-08-19T07:23:40;10.80;;;9.05;;
17662;SDS011;8950;56.892;15.090;2022-08-19T07:26:08;10.30;;;9.32;;
17662;SDS011;8950;56.892;15.090;2022-08-19T07:28:34;9.90;;;8.98;;
17662;SDS011;8950;56.892;15.090;2022-08-19T07:31:04;10.15;;;9.10;;
17662;SDS011;8950;56.892;15.090;2022-08-19T07:33:30;10.38;;;9.45;;
17662;SDS011;8950;56.892;15.090;2022-08-19T07:35:57;9.63;;;8.80;;
17662;SDS011;8950;56.892;15.090;2022-08-19T07:38:25;10.55;;;9.50;;
17662;SDS011;8950;56.892;15.090;2022-08-19T07:40:52;10.75;;;9.15;;
17662;SDS011;8950;56.892;15.090;2022-08-19T07:43:18;9.20;;;8.30;;
17662;SDS011;8950;56.892;15.090;2022-08-19T07:45:48;10.18;;;9.25;;
17662;SDS011;8950;56.892;15.090;2022-08-19T07:48:14;9.63;;;8.80;;
17662;SDS011;8950;56.892;15.090;2022-08-19T07:50:41;9.98;;;9.02;;
17662;SDS011;8950;56.892;15.090;2022-08-19T07:53:07;9.35;;;8.45;;
17662;SDS011;8950;56.892;15.090;2022-08-19T07:55:35;10.15;;;9.35;;
17662;SDS011;8950;56.892;15.090;2022-08-19T07:58:02;10.20;;;9.23;;
17662;SDS011;8950;56.892;15.090;2022-08-19T08:00:30;9.35;;;8.48;;
17662;SDS011;8950;56.892;15.090;2022-08-19T08:02:56;9.15;;;8.35;;
17662;SDS011;8950;56.892;15.090;2022-08-19T08:05:23;9.88;;;8.98;;
17662;SDS011;8950;56.892;15.090;2022-08-19T08:08:07;9.48;;;8.55;;
17662;SDS011;8950;56.892;15.090;2022-08-19T08:10:52;9.32;;;8.52;;
17662;SDS011;8950;56.892;15.090;2022-08-19T08:13:19;8.88;;;7.97;;
17662;SDS011;8950;56.892;15.090;2022-08-19T08:15:46;8.98;;;7.72;;
17662;SDS011;8950;56.892;15.090;2022-08-19T08:18:13;9.82;;;8.25;;
17662;SDS011;8950;56.892;15.090;2022-08-19T08:20:39;8.23;;;7.53;;
17662;SDS011;8950;56.892;15.090;2022-08-19T08:23:05;8.68;;;7.85;;
17662;SDS011;8950;56.892;15.090;2022-08-19T08:25:51;8.52;;;7.82;;
17662;SDS011;8950;56.892;15.090;2022-08-19T08:28:19;8.30;;;7.60;;
17662;SDS011;8950;56.892;15.090;2022-08-19T08:30:46;8.18;;;7.32;;
17662;SDS011;8950;56.892;15.090;2022-08-19T08:33:12;8.80;;;8.00;;
17662;SDS011;8950;56.892;15.090;2022-08-19T08:35:40;8.68;;;7.97;;
17662;SDS011;8950;56.892;15.090;2022-08-19T08:38:07;7.68;;;7.07;;
17662;SDS011;8950;56.892;15.090;2022-08-19T08:40:38;9.18;;;8.10;;
17662;SDS011;8950;56.892;15.090;2022-08-19T08:43:07;8.63;;;7.93;;
17662;SDS011;8950;56.892;15.090;2022-08-19T08:45:44;9.43;;;8.50;;
17662;SDS011;8950;56.892;15.090;2022-08-19T08:48:15;8.48;;;7.80;;
17662;SDS011;8950;56.892;15.090;2022-08-19T08:50:43;7.90;;;7.22;;
17662;SDS011;8950;56.892;15.090;2022-08-19T08:53:11;8.50;;;7.72;;
17662;SDS011;8950;56.892;15.090;2022-08-19T08:55:40;8.45;;;7.70;;
17662;SDS011;8950;56.892;15.090;2022-08-19T08:58:09;8.10;;;7.35;;
17662;SDS011;8950;56.892;15.090;2022-08-19T09:00:42;7.93;;;7.32;;
17662;SDS011;8950;56.892;15.090;2022-08-19T09:03:13;7.90;;;7.20;;
17662;SDS011;8950;56.892;15.090;2022-08-19T09:05:41;7.72;;;7.03;;
17662;SDS011;8950;56.892;15.090;2022-08-19T09:08:12;7.22;;;6.63;;
17662;SDS011;8950;56.892;15.090;2022-08-19T09:10:40;8.02;;;7.15;;
17662;SDS011;8950;56.892;15.090;2022-08-19T09:13:11;8.00;;;7.40;;
17662;SDS011;8950;56.892;15.090;2022-08-19T09:15:42;7.75;;;7.15;;
17662;SDS011;8950;56.892;15.090;2022-08-19T09:18:10;8.10;;;7.40;;
17662;SDS011;8950;56.892;15.090;2022-08-19T09:20:36;8.65;;;7.10;;
17662;SDS011;8950;56.892;15.090;2022-08-19T09:23:03;7.50;;;6.85;;
17662;SDS011;8950;56.892;15.090;2022-08-19T09:25:29;8.20;;;7.50;;
17662;SDS011;8950;56.892;15.090;2022-08-19T09:27:59;8.18;;;7.40;;
17662;SDS011;8950;56.892;15.090;2022-08-19T09:30:29;7.22;;;6.53;;
17662;SDS011;8950;56.892;15.090;2022-08-19T09:32:57;13.93;;;7.90;;
17662;SDS011;8950;56.892;15.090;2022-08-19T09:35:25;7.50;;;6.80;;
17662;SDS011;8950;56.892;15.090;2022-08-19T09:37:52;7.30;;;6.80;;
17662;SDS011;8950;56.892;15.090;2022-08-19T09:40:19;7.88;;;7.15;;
17662;SDS011;8950;56.892;15.090;2022-08-19T09:42:46;7.40;;;6.80;;
17662;SDS011;8950;56.892;15.090;2022-08-19T09:45:13;7.72;;;7.03;;
17662;SDS011;8950;56.892;15.090;2022-08-19T09:47:41;8.15;;;7.47;;
17662;SDS011;8950;56.892;15.090;2022-08-19T09:50:09;8.25;;;7.57;;
17662;SDS011;8950;56.892;15.090;2022-08-19T09:52:37;11.23;;;7.63;;
17662;SDS011;8950;56.892;15.090;2022-08-19T09:55:04;8.55;;;7.50;;
17662;SDS011;8950;56.892;15.090;2022-08-19T09:57:30;7.97;;;7.28;;
17662;SDS011;8950;56.892;15.090;2022-08-19T09:59:57;7.85;;;6.97;;
17662;SDS011;8950;56.892;15.090;2022-08-19T10:02:23;8.40;;;7.70;;
17662;SDS011;8950;56.892;15.090;2022-08-19T10:04:50;9.00;;;7.80;;
17662;SDS011;8950;56.892;15.090;2022-08-19T10:07:43;8.52;;;7.80;;
17662;SDS011;8950;56.892;15.090;2022-08-19T10:10:10;7.68;;;7.07;;
17662;SDS011;8950;56.892;15.090;2022-08-19T10:12:40;8.25;;;7.45;;
17662;SDS011;8950;56.892;15.090;2022-08-19T10:15:07;8.70;;;7.80;;
17662;SDS011;8950;56.892;15.090;2022-08-19T10:17:34;8.25;;;7.43;;
17662;SDS011;8950;56.892;15.090;2022-08-19T10:20:01;7.90;;;7.30;;
17662;SDS011;8950;56.892;15.090;2022-08-19T10:22:29;8.40;;;7.80;;
17662;SDS011;8950;56.892;15.090;2022-08-19T10:24:57;9.15;;;8.10;;
17662;SDS011;8950;56.892;15.090;2022-08-19T10:27:23;8.52;;;7.38;;
17662;SDS011;8950;56.892;15.090;2022-08-19T10:29:50;8.80;;;8.10;;
17662;SDS011;8950;56.892;15.090;2022-08-19T10:32:16;10.73;;;7.93;;
17662;SDS011;8950;56.892;15.090;2022-08-19T10:34:42;8.05;;;7.35;;
17662;SDS011;8950;56.892;15.090;2022-08-19T10:37:09;8.43;;;7.72;;
17662;SDS011;8950;56.892;15.090;2022-08-19T10:39:36;8.18;;;7.32;;
17662;SDS011;8950;56.892;15.090;2022-08-19T10:42:05;9.02;;;8.18;;
17662;SDS011;8950;56.892;15.090;2022-08-19T10:44:33;7.40;;;6.70;;
17662;SDS011;8950;56.892;15.090;2022-08-19T10:47:00;9.00;;;7.68;;
17662;SDS011;8950;56.892;15.090;2022-08-19T10:49:27;7.95;;;7.10;;
17662;SDS011;8950;56.892;15.090;2022-08-19T10:51:54;11.20;;;8.05;;
17662;SDS011;8950;56.892;15.090;2022-08-19T10:54:38;8.90;;;8.20;;
17662;SDS011;8950;56.892;15.090;2022-08-19T10:57:23;10.20;;;8.55;;
17662;SDS011;8950;56.892;15.090;2022-08-19T10:59:54;8.27;;;7.68;;
17662;SDS011;8950;56.892;15.090;2022-08-19T11:02:20;8.07;;;7.47;;
17662;SDS011;8950;56.892;15.090;2022-08-19T11:04:47;8.60;;;7.90;;
17662;SDS011;8950;56.892;15.090;2022-08-19T11:07:14;8.60;;;7.90;;
17662;SDS011;8950;56.892;15.090;2022-08-19T11:09:41;53.53;;;13.38;;
17662;SDS011;8950;56.892;15.090;2022-08-19T11:12:08;9.35;;;8.55;;
17662;SDS011;8950;56.892;15.090;2022-08-19T11:14:37;9.00;;;8.18;;
17662;SDS011;8950;56.892;15.090;2022-08-19T11:17:04;9.25;;;8.48;;
17662;SDS011;8950;56.892;15.090;2022-08-19T11:19:31;10.05;;;9.18;;
17662;SDS011;8950;56.892;15.090;2022-08-19T11:21:58;8.80;;;7.90;;
17662;SDS011;8950;56.892;15.090;2022-08-19T11:24:26;9.43;;;8.63;;
17662;SDS011;8950;56.892;15.090;2022-08-19T11:26:54;10.23;;;9.32;;
17662;SDS011;8950;56.892;15.090;2022-08-19T11:29:25;9.98;;;9.10;;
17662;SDS011;8950;56.892;15.090;2022-08-19T11:31:54;12.95;;;9.38;;
17662;SDS011;8950;56.892;15.090;2022-08-19T11:34:21;10.45;;;9.55;;
17662;SDS011;8950;56.892;15.090;2022-08-19T11:36:48;10.00;;;8.98;;
17662;SDS011;8950;56.892;15.090;2022-08-19T11:39:16;11.18;;;8.95;;
17662;SDS011;8950;56.892;15.090;2022-08-19T11:41:43;10.18;;;9.27;;
17662;SDS011;8950;56.892;15.090;2022-08-19T11:44:09;10.05;;;9.07;;
17662;SDS011;8950;56.892;15.090;2022-08-19T11:46:38;9.90;;;9.00;;
17662;SDS011;8950;56.892;15.090;2022-08-19T11:49:06;10.25;;;9.27;;
17662;SDS011;8950;56.892;15.090;2022-08-19T11:51:34;10.20;;;9.13;;
17662;SDS011;8950;56.892;15.090;2022-08-19T11:54:01;9.73;;;8.93;;
17662;SDS011;8950;56.892;15.090;2022-08-19T11:56:27;10.50;;;9.60;;
17662;SDS011;8950;56.892;15.090;2022-08-19T11:58:54;11.75;;;8.82;;
17662;SDS011;8950;56.892;15.090;2022-08-19T12:01:21;16.50;;;10.02;;
17662;SDS011;8950;56.892;15.090;2022-08-19T12:03:49;25.23;;;9.45;;
17662;SDS011;8950;56.892;15.090;2022-08-19T12:06:18;9.98;;;9.02;;
17662;SDS011;8950;56.892;15.090;2022-08-19T12:08:45;10.05;;;9.13;;
17662;SDS011;8950;56.892;15.090;2022-08-19T12:11:12;9.18;;;8.48;;
17662;SDS011;8950;56.892;15.090;2022-08-19T12:13:39;9.57;;;8.75;;
17662;SDS011;8950;56.892;15.090;2022-08-19T12:16:07;10.20;;;9.40;;
17662;SDS011;8950;56.892;15.090;2022-08-19T12:18:36;10.98;;;9.88;;
17662;SDS011;8950;56.892;15.090;2022-08-19T12:21:02;10.02;;;9.18;;
17662;SDS011;8950;56.892;15.090;2022-08-19T12:23:30;9.88;;;8.80;;
17662;SDS011;8950;56.892;15.090;2022-08-19T12:25:57;10.48;;;9.05;;
17662;SDS011;8950;56.892;15.090;2022-08-19T12:28:24;9.63;;;8.82;;
17662;SDS011;8950;56.892;15.090;2022-08-19T12:30:51;10.27;;;9.38;;
17662;SDS011;8950;56.892;15.090;2022-08-19T12:33:17;9.55;;;8.77;;
17662;SDS011;8950;56.892;15.090;2022-08-19T12:35:45;10.65;;;9.85;;
17662;SDS011;8950;56.892;15.090;2022-08-19T12:38:11;10.65;;;9.60;;
17662;SDS011;8950;56.892;15.090;2022-08-19T12:40:39;10.90;;;10.10;;
17662;SDS011;8950;56.892;15.090;2022-08-19T12:43:06;10.55;;;9.75;;
17662;SDS011;8950;56.892;15.090;2022-08-19T12:45:33;11.23;;;10.32;;
17662;SDS011;8950;56.892;15.090;2022-08-19T12:47:59;16.95;;;10.10;;
17662;SDS011;8950;56.892;15.090;2022-08-19T12:50:26;11.00;;;10.00;;
17662;SDS011;8950;56.892;15.090;2022-08-19T12:52:53;11.07;;;9.43;;
17662;SDS011;8950;56.892;15.090;2022-08-19T12:55:20;11.15;;;10.02;;
17662;SDS011;8950;56.892;15.090;2022-08-19T12:57:47;11.15;;;10.07;;
17662;SDS011;8950;56.892;15.090;2022-08-19T13:00:16;9.88;;;9.07;;
17662;SDS011;8950;56.892;15.090;2022-08-19T13:02:44;10.40;;;9.50;;
17662;SDS011;8950;56.892;15.090;2022-08-19T13:05:12;10.30;;;9.32;;
17662;SDS011;8950;56.892;15.090;2022-08-19T13:07:39;9.60;;;8.75;;
17662;SDS011;8950;56.892;15.090;2022-08-19T13:10:07;11.20;;;9.68;;
17662;SDS011;8950;56.892;15.090;2022-08-19T13:12:34;10.40;;;9.60;;
17662;SDS011;8950;56.892;15.090;2022-08-19T13:15:02;10.20;;;9.40;;
17662;SDS011;8950;56.892;15.090;2022-08-19T13:17:28;10.23;;;9.32;;
17662;SDS011;8950;56.892;15.090;2022-08-19T13:19:55;11.13;;;10.02;;
17662;SDS011;8950;56.892;15.090;2022-08-19T13:22:22;11.75;;;9.88;;
17662;SDS011;8950;56.892;15.090;2022-08-19T13:24:48;11.55;;;10.40;;
17662;SDS011;8950;56.892;15.090;2022-08-19T13:27:15;9.57;;;8.77;;
17662;SDS011;8950;56.892;15.090;2022-08-19T13:29:41;10.82;;;9.80;;
17662;SDS011;8950;56.892;15.090;2022-08-19T13:32:27;10.93;;;9.85;;
17662;SDS011;8950;56.892;15.090;2022-08-19T13:35:12;10.13;;;9.27;;
17662;SDS011;8950;56.892;15.090;2022-08-19T13:37:38;10.35;;;9.27;;
17662;SDS011;8950;56.892;15.090;2022-08-19T13:40:08;10.20;;;9.23;;
17662;SDS011;8950;56.892;15.090;2022-08-19T13:42:36;9.95;;;9.05;;
17662;SDS011;8950;56.892;15.090;2022-08-19T13:45:03;10.32;;;9.50;;
17662;SDS011;8950;56.892;15.090;2022-08-19T13:47:32;12.63;;;9.73;;
17662;SDS011;8950;56.892;15.090;2022-08-19T13:50:00;10.77;;;9.15;;
17662;SDS011;8950;56.892;15.090;2022-08-19T13:52:27;10.35;;;9.43;;
17662;SDS011;8950;56.892;15.090;2022-08-19T13:54:53;11.00;;;9.85;;
17662;SDS011;8950;56.892;15.090;2022-08-19T13:57:19;10.98;;;9.98;;
17662;SDS011;8950;56.892;15.090;2022-08-19T13:59:46;11.60;;;10.40;;
17662;SDS011;8950;56.892;15.090;2022-08-19T14:02:12;10.63;;;9.73;;
17662;SDS011;8950;56.892;15.090;2022-08-19T14:04:41;11.68;;;10.77;;
17662;SDS011;8950;56.892;15.090;2022-08-19T14:07:07;10.85;;;9.95;;
17662;SDS011;8950;56.892;15.090;2022-08-19T14:09:34;10.02;;;9.10;;
17662;SDS011;8950;56.892;15.090;2022-08-19T14:12:01;11.23;;;10.05;;
17662;SDS011;8950;56.892;15.090;2022-08-19T14:14:28;11.00;;;9.90;;
17662;SDS011;8950;56.892;15.090;2022-08-19T14:16:55;12.20;;;10.65;;
17662;SDS011;8950;56.892;15.090;2022-08-19T14:19:21;10.95;;;9.77;;
17662;SDS011;8950;56.892;15.090;2022-08-19T14:21:49;11.65;;;10.52;;
17662;SDS011;8950;56.892;15.090;2022-08-19T14:24:16;11.15;;;9.85;;
17662;SDS011;8950;56.892;15.090;2022-08-19T14:26:42;11.07;;;10.10;;
17662;SDS011;8950;56.892;15.090;2022-08-19T14:29:08;13.15;;;9.63;;
17662;SDS011;8950;56.892;15.090;2022-08-19T14:31:35;11.07;;;10.10;;
17662;SDS011;8950;56.892;15.090;2022-08-19T14:34:01;13.05;;;10.30;;
17662;SDS011;8950;56.892;15.090;2022-08-19T14:36:28;11.77;;;9.50;;
17662;SDS011;8950;56.892;15.090;2022-08-19T14:38:57;10.13;;;9.23;;
17662;SDS011;8950;56.892;15.090;2022-08-19T14:41:25;11.18;;;10.18;;